Magnolia — WDB7135 — position and weather

sailwx.info

Track history (hours):
 
Tides and Currents Weather Stations Pressure Air Temp Water Temp Dewpoint Dewpoint Depression Visibility Wind Speed Wind Dir Waves Ship Positions

Magnolia

Owner: Magnolia Marine Transport Co, Vicksburg, MS. More information available from US FCC via Universal Licensing System and Coast Guard Vessel Documentation Center.

Last reported at 2016-Apr-02 14:33 UTC. Time now 2016-May-02 10:41 UTC.
Position N 32°22' W 090°53'.
Warning: this ship's position is 29 days out of date.

Length 33 m; draft 2.7 m.

Type: Towing. MMSI: 366936980.

Date/timePositionNaut miles runAvg speedWind from/ knotsBaromVisibWave heightAir tempDewpointWater temp
2016-Apr-02 14:33N 32°22' W 090°53'1 1.3
2016-Apr-02 13:31N 32°23' W 090°55'0 0.0
2016-Apr-02 12:31N 32°23' W 090°55'0 0.0
2016-Apr-02 11:31N 32°23' W 090°55'0 0.0
2016-Apr-02 10:31N 32°23' W 090°55'0 0.0
2016-Apr-02 09:31N 32°23' W 090°55'0 0.0
2016-Apr-02 08:31N 32°23' W 090°55'0 0.0
2016-Apr-02 07:31N 32°23' W 090°55'0 0.0
2016-Apr-02 06:31N 32°23' W 090°55'0 0.0
2016-Apr-02 05:31N 32°23' W 090°55'0 0.0
2016-Apr-02 04:31N 32°23' W 090°55'0 0.0
2016-Apr-02 03:31N 32°23' W 090°55'0 0.0
2016-Apr-02 02:31N 32°23' W 090°55'0 0.0
2016-Apr-02 01:31N 32°23' W 090°55'0 0.0
2016-Apr-02 00:31N 32°23' W 090°55'0 0.0
2016-Apr-01 23:31N 32°23' W 090°55'0 0.0
2016-Apr-01 22:31N 32°23' W 090°55'0 0.0
2016-Apr-01 21:31N 32°23' W 090°55'0 0.0
2016-Apr-01 20:31N 32°23' W 090°55'0 0.0
2016-Apr-01 19:31N 32°23' W 090°55'0 0.0
2016-Apr-01 18:31N 32°23' W 090°55'0 0.0
2016-Apr-01 17:31N 32°23' W 090°55'0 0.0
2016-Apr-01 14:28N 32°23' W 090°55'0 0.0
2016-Apr-01 13:31N 32°23' W 090°55'0 0.0
2016-Apr-01 12:31N 32°23' W 090°55'0 0.0
2016-Apr-01 11:33N 32°23' W 090°55'0 0.0
2016-Apr-01 10:33N 32°23' W 090°55'0 0.0
2016-Apr-01 09:33N 32°23' W 090°55'0 0.0
2016-Apr-01 08:33N 32°23' W 090°55'0 0.0
2016-Apr-01 07:33N 32°23' W 090°55'0 0.0
2016-Apr-01 06:33N 32°23' W 090°55'0 0.0
2016-Apr-01 05:33N 32°23' W 090°55'0 0.0
2016-Apr-01 04:34N 32°23' W 090°55'0 0.0
2016-Apr-01 03:33N 32°23' W 090°55'0 0.0
2016-Apr-01 02:33N 32°23' W 090°55'0 0.1
2016-Apr-01 01:33N 32°23' W 090°55'0 0.0
2016-Apr-01 00:33N 32°23' W 090°55'0 0.2
2016-Mar-31 23:33N 32°23' W 090°54'0 0.0
2016-Mar-31 22:33N 32°23' W 090°54'0 0.0
2016-Mar-31 21:33N 32°23' W 090°54'0 0.0
2016-Mar-31 20:33N 32°23' W 090°54'0 0.0
2016-Mar-31 19:33N 32°23' W 090°54'0 0.0
2016-Mar-31 18:33N 32°23' W 090°54'0 0.0
2016-Mar-31 17:33N 32°23' W 090°54'0 0.0
2016-Mar-31 16:33N 32°23' W 090°54'0 0.0
2016-Mar-31 15:33N 32°23' W 090°54'0 0.5
2016-Mar-31 14:33N 32°23' W 090°54'1 1.4
2016-Mar-31 13:33N 32°22' W 090°53'1 1.2
2016-Mar-31 12:33N 32°21' W 090°54'4 4.1
2016-Mar-31 11:33N 32°17' W 090°56'5 4.8
2016-Mar-31 10:33N 32°13' W 090°59'5 5.0
2016-Mar-31 09:33N 32°08' W 091°00'5 4.9
2016-Mar-31 08:33N 32°08' W 091°06'  
2016-Mar-25 23:25N 32°04' W 091°04'4 4.5
2016-Mar-25 22:33N 32°07' W 091°01'9 9.6
2016-Mar-25 21:34N 32°16' W 090°57'6 5.5
2016-Mar-25 20:34N 32°21' W 090°53'0 0.0
2016-Mar-25 19:34N 32°21' W 090°53'0 0.0
2016-Mar-25 18:34N 32°21' W 090°53'0 0.0
2016-Mar-25 17:33N 32°21' W 090°53'0 0.0
2016-Mar-25 16:33N 32°21' W 090°53'0 0.0
2016-Mar-25 15:34N 32°21' W 090°53'0 0.0
2016-Mar-25 14:34N 32°21' W 090°53'0 0.0
2016-Mar-25 13:33N 32°21' W 090°53'0 0.3
2016-Mar-25 12:34N 32°21' W 090°54'0 0.1
2016-Mar-25 11:34N 32°21' W 090°54'0 0.0
2016-Mar-25 10:34N 32°21' W 090°54'0 0.1
2016-Mar-25 09:34N 32°20' W 090°54'5 5.3
2016-Mar-25 08:34N 32°21' W 090°60'8 7.7
2016-Mar-25 07:33N 32°27' W 091°05'9 0.3
2016-Mar-24 04:33N 32°36' W 091°09'7 5.7
2016-Mar-24 03:23N 32°30' W 091°07'5 6.0
2016-Mar-24 02:34N 32°26' W 091°03'5 5.4
2016-Mar-24 01:34N 32°21' W 090°60'5 5.2
2016-Mar-24 00:33N 32°20' W 090°54'0 0.1
2016-Mar-23 23:34N 32°20' W 090°54'4 3.7
2016-Mar-23 22:34N 32°17' W 090°56'5 4.5
2016-Mar-23 21:34N 32°13' W 090°59'5 4.7
2016-Mar-23 20:34N 32°09' W 091°00'3 3.5
2016-Mar-23 19:33N 32°08' W 091°04'  
Track history (hours):
 
Tides and Currents Weather Stations Pressure Air Temp Water Temp Dewpoint Dewpoint Depression Visibility Wind Speed Wind Dir Waves Ship Positions

Magnolia

Owner: Magnolia Marine Transport Co, Vicksburg, MS. More information available from US FCC via Universal Licensing System and Coast Guard Vessel Documentation Center.

Last reported at 2016-Apr-02 14:33 UTC. Time now 2016-May-02 10:41 UTC.
Position N 32°22' W 090°53'.
Warning: this ship's position is 29 days out of date.

Length 33 m; draft 2.7 m.

Type: Towing. MMSI: 366936980.

Date/timePositionNaut miles runAvg speedWind from/ knotsBaromVisibWave heightAir tempDewpointWater temp
2016-Apr-02 14:33N 32°22' W 090°53'1 1.3
2016-Apr-02 13:31N 32°23' W 090°55'0 0.0
2016-Apr-02 12:31N 32°23' W 090°55'0 0.0
2016-Apr-02 11:31N 32°23' W 090°55'0 0.0
2016-Apr-02 10:31N 32°23' W 090°55'0 0.0
2016-Apr-02 09:31N 32°23' W 090°55'0 0.0
2016-Apr-02 08:31N 32°23' W 090°55'0 0.0
2016-Apr-02 07:31N 32°23' W 090°55'0 0.0
2016-Apr-02 06:31N 32°23' W 090°55'0 0.0
2016-Apr-02 05:31N 32°23' W 090°55'0 0.0
2016-Apr-02 04:31N 32°23' W 090°55'0 0.0
2016-Apr-02 03:31N 32°23' W 090°55'0 0.0
2016-Apr-02 02:31N 32°23' W 090°55'0 0.0
2016-Apr-02 01:31N 32°23' W 090°55'0 0.0
2016-Apr-02 00:31N 32°23' W 090°55'0 0.0
2016-Apr-01 23:31N 32°23' W 090°55'0 0.0
2016-Apr-01 22:31N 32°23' W 090°55'0 0.0
2016-Apr-01 21:31N 32°23' W 090°55'0 0.0
2016-Apr-01 20:31N 32°23' W 090°55'0 0.0
2016-Apr-01 19:31N 32°23' W 090°55'0 0.0
2016-Apr-01 18:31N 32°23' W 090°55'0 0.0
2016-Apr-01 17:31N 32°23' W 090°55'0 0.0
2016-Apr-01 14:28N 32°23' W 090°55'0 0.0
2016-Apr-01 13:31N 32°23' W 090°55'0 0.0
2016-Apr-01 12:31N 32°23' W 090°55'0 0.0
2016-Apr-01 11:33N 32°23' W 090°55'0 0.0
2016-Apr-01 10:33N 32°23' W 090°55'0 0.0
2016-Apr-01 09:33N 32°23' W 090°55'0 0.0
2016-Apr-01 08:33N 32°23' W 090°55'0 0.0
2016-Apr-01 07:33N 32°23' W 090°55'0 0.0
2016-Apr-01 06:33N 32°23' W 090°55'0 0.0
2016-Apr-01 05:33N 32°23' W 090°55'0 0.0
2016-Apr-01 04:34N 32°23' W 090°55'0 0.0
2016-Apr-01 03:33N 32°23' W 090°55'0 0.0
2016-Apr-01 02:33N 32°23' W 090°55'0 0.1
2016-Apr-01 01:33N 32°23' W 090°55'0 0.0
2016-Apr-01 00:33N 32°23' W 090°55'0 0.2
2016-Mar-31 23:33N 32°23' W 090°54'0 0.0
2016-Mar-31 22:33N 32°23' W 090°54'0 0.0
2016-Mar-31 21:33N 32°23' W 090°54'0 0.0
2016-Mar-31 20:33N 32°23' W 090°54'0 0.0
2016-Mar-31 19:33N 32°23' W 090°54'0 0.0
2016-Mar-31 18:33N 32°23' W 090°54'0 0.0
2016-Mar-31 17:33N 32°23' W 090°54'0 0.0
2016-Mar-31 16:33N 32°23' W 090°54'0 0.0
2016-Mar-31 15:33N 32°23' W 090°54'0 0.5
2016-Mar-31 14:33N 32°23' W 090°54'1 1.4
2016-Mar-31 13:33N 32°22' W 090°53'1 1.2
2016-Mar-31 12:33N 32°21' W 090°54'4 4.1
2016-Mar-31 11:33N 32°17' W 090°56'5 4.8
2016-Mar-31 10:33N 32°13' W 090°59'5 5.0
2016-Mar-31 09:33N 32°08' W 091°00'5 4.9
2016-Mar-31 08:33N 32°08' W 091°06'  
2016-Mar-25 23:25N 32°04' W 091°04'4 4.5
2016-Mar-25 22:33N 32°07' W 091°01'9 9.6
2016-Mar-25 21:34N 32°16' W 090°57'6 5.5
2016-Mar-25 20:34N 32°21' W 090°53'0 0.0
2016-Mar-25 19:34N 32°21' W 090°53'0 0.0
2016-Mar-25 18:34N 32°21' W 090°53'0 0.0
2016-Mar-25 17:33N 32°21' W 090°53'0 0.0
2016-Mar-25 16:33N 32°21' W 090°53'0 0.0
2016-Mar-25 15:34N 32°21' W 090°53'0 0.0
2016-Mar-25 14:34N 32°21' W 090°53'0 0.0
2016-Mar-25 13:33N 32°21' W 090°53'0 0.3
2016-Mar-25 12:34N 32°21' W 090°54'0 0.1
2016-Mar-25 11:34N 32°21' W 090°54'0 0.0
2016-Mar-25 10:34N 32°21' W 090°54'0 0.1
2016-Mar-25 09:34N 32°20' W 090°54'5 5.3
2016-Mar-25 08:34N 32°21' W 090°60'8 7.7
2016-Mar-25 07:33N 32°27' W 091°05'9 0.3
2016-Mar-24 04:33N 32°36' W 091°09'7 5.7
2016-Mar-24 03:23N 32°30' W 091°07'5 6.0
2016-Mar-24 02:34N 32°26' W 091°03'5 5.4
2016-Mar-24 01:34N 32°21' W 090°60'5 5.2
2016-Mar-24 00:33N 32°20' W 090°54'0 0.1
2016-Mar-23 23:34N 32°20' W 090°54'4 3.7
2016-Mar-23 22:34N 32°17' W 090°56'5 4.5
2016-Mar-23 21:34N 32°13' W 090°59'5 4.7
2016-Mar-23 20:34N 32°09' W 091°00'3 3.5
2016-Mar-23 19:33N 32°08' W 091°04'  

Dump ship's entire track history